sensor_id;sensor_type;location;lat;lon;timestamp;temperature;humidity
58809;DHT22;44579;51.672;7.834;2024-01-16T00:00:31;1.90;97.50
58809;DHT22;44579;51.672;7.834;2024-01-16T00:02:58;1.90;97.60
58809;DHT22;44579;51.672;7.834;2024-01-16T00:05:25;1.80;97.60
58809;DHT22;44579;51.672;7.834;2024-01-16T00:07:52;1.80;97.60
58809;DHT22;44579;51.672;7.834;2024-01-16T00:10:19;1.90;97.70
58809;DHT22;44579;51.672;7.834;2024-01-16T00:12:45;1.90;97.70
58809;DHT22;44579;51.672;7.834;2024-01-16T00:15:12;1.90;97.70
58809;DHT22;44579;51.672;7.834;2024-01-16T00:17:39;1.90;97.60
58809;DHT22;44579;51.672;7.834;2024-01-16T00:20:06;1.90;97.60
58809;DHT22;44579;51.672;7.834;2024-01-16T00:22:33;1.90;97.60
58809;DHT22;44579;51.672;7.834;2024-01-16T00:25:00;1.90;97.60
58809;DHT22;44579;51.672;7.834;2024-01-16T00:27:27;1.90;97.60
58809;DHT22;44579;51.672;7.834;2024-01-16T00:29:53;1.90;97.60
58809;DHT22;44579;51.672;7.834;2024-01-16T00:32:20;1.90;97.60
58809;DHT22;44579;51.672;7.834;2024-01-16T00:34:48;1.90;97.60
58809;DHT22;44579;51.672;7.834;2024-01-16T00:37:14;1.90;97.50
58809;DHT22;44579;51.672;7.834;2024-01-16T00:39:41;1.90;97.50
58809;DHT22;44579;51.672;7.834;2024-01-16T00:42:08;1.90;97.50
58809;DHT22;44579;51.672;7.834;2024-01-16T00:44:35;1.90;97.60
58809;DHT22;44579;51.672;7.834;2024-01-16T00:47:02;1.90;97.60
58809;DHT22;44579;51.672;7.834;2024-01-16T00:49:29;1.90;97.60
58809;DHT22;44579;51.672;7.834;2024-01-16T00:51:56;1.90;97.60
58809;DHT22;44579;51.672;7.834;2024-01-16T00:54:22;1.90;97.50
58809;DHT22;44579;51.672;7.834;2024-01-16T00:56:49;1.90;97.50
58809;DHT22;44579;51.672;7.834;2024-01-16T00:59:16;1.80;97.50
58809;DHT22;44579;51.672;7.834;2024-01-16T01:01:43;1.80;97.50
58809;DHT22;44579;51.672;7.834;2024-01-16T01:04:10;1.80;97.40
58809;DHT22;44579;51.672;7.834;2024-01-16T01:06:37;1.70;97.40
58809;DHT22;44579;51.672;7.834;2024-01-16T01:09:04;1.70;97.40
58809;DHT22;44579;51.672;7.834;2024-01-16T01:11:31;1.70;97.40
58809;DHT22;44579;51.672;7.834;2024-01-16T01:13:57;1.60;97.40
58809;DHT22;44579;51.672;7.834;2024-01-16T01:16:24;1.60;97.40
58809;DHT22;44579;51.672;7.834;2024-01-16T01:18:51;1.60;97.40
58809;DHT22;44579;51.672;7.834;2024-01-16T01:21:18;1.60;97.40
58809;DHT22;44579;51.672;7.834;2024-01-16T01:23:45;1.60;97.40
58809;DHT22;44579;51.672;7.834;2024-01-16T01:26:12;1.60;97.50
58809;DHT22;44579;51.672;7.834;2024-01-16T01:28:44;1.70;97.50
58809;DHT22;44579;51.672;7.834;2024-01-16T01:31:11;1.60;97.40
58809;DHT22;44579;51.672;7.834;2024-01-16T01:33:41;1.60;97.40
58809;DHT22;44579;51.672;7.834;2024-01-16T01:36:09;1.60;97.40
58809;DHT22;44579;51.672;7.834;2024-01-16T01:38:36;1.60;97.40
58809;DHT22;44579;51.672;7.834;2024-01-16T01:41:03;1.70;97.40
58809;DHT22;44579;51.672;7.834;2024-01-16T01:43:33;1.60;97.30
58809;DHT22;44579;51.672;7.834;2024-01-16T01:46:08;1.60;97.30
58809;DHT22;44579;51.672;7.834;2024-01-16T01:48:36;1.60;97.30
58809;DHT22;44579;51.672;7.834;2024-01-16T01:51:04;1.60;97.40
58809;DHT22;44579;51.672;7.834;2024-01-16T01:53:31;1.60;97.30
58809;DHT22;44579;51.672;7.834;2024-01-16T01:56:00;1.60;97.30
58809;DHT22;44579;51.672;7.834;2024-01-16T01:58:29;1.60;97.30
58809;DHT22;44579;51.672;7.834;2024-01-16T02:00:55;1.60;97.30
58809;DHT22;44579;51.672;7.834;2024-01-16T02:03:22;1.60;97.30
58809;DHT22;44579;51.672;7.834;2024-01-16T02:05:50;1.60;97.40
58809;DHT22;44579;51.672;7.834;2024-01-16T02:08:17;1.60;97.40
58809;DHT22;44579;51.672;7.834;2024-01-16T02:10:45;1.60;97.40
58809;DHT22;44579;51.672;7.834;2024-01-16T02:13:13;1.60;97.40
58809;DHT22;44579;51.672;7.834;2024-01-16T02:15:39;1.60;97.40
58809;DHT22;44579;51.672;7.834;2024-01-16T02:18:07;1.60;97.40
58809;DHT22;44579;51.672;7.834;2024-01-16T02:20:34;1.60;97.40
58809;DHT22;44579;51.672;7.834;2024-01-16T02:23:03;1.70;97.40
58809;DHT22;44579;51.672;7.834;2024-01-16T02:25:30;1.70;97.40
58809;DHT22;44579;51.672;7.834;2024-01-16T02:27:57;1.70;97.40
58809;DHT22;44579;51.672;7.834;2024-01-16T02:30:24;1.60;97.40
58809;DHT22;44579;51.672;7.834;2024-01-16T02:32:50;1.70;97.40
58809;DHT22;44579;51.672;7.834;2024-01-16T02:35:17;1.60;97.40
58809;DHT22;44579;51.672;7.834;2024-01-16T02:37:45;1.60;97.40
58809;DHT22;44579;51.672;7.834;2024-01-16T02:40:12;1.60;97.40
58809;DHT22;44579;51.672;7.834;2024-01-16T02:42:40;1.60;97.50
58809;DHT22;44579;51.672;7.834;2024-01-16T02:45:06;1.60;97.50
58809;DHT22;44579;51.672;7.834;2024-01-16T02:47:33;1.60;97.50
58809;DHT22;44579;51.672;7.834;2024-01-16T02:50:00;1.60;97.40
58809;DHT22;44579;51.672;7.834;2024-01-16T02:52:27;1.70;97.50
58809;DHT22;44579;51.672;7.834;2024-01-16T02:54:54;1.70;97.40
58809;DHT22;44579;51.672;7.834;2024-01-16T02:57:21;1.70;97.50
58809;DHT22;44579;51.672;7.834;2024-01-16T02:59:48;1.70;97.50
58809;DHT22;44579;51.672;7.834;2024-01-16T03:02:15;1.70;97.50
58809;DHT22;44579;51.672;7.834;2024-01-16T03:04:42;1.70;97.40
58809;DHT22;44579;51.672;7.834;2024-01-16T03:07:09;1.70;97.70
58809;DHT22;44579;51.672;7.834;2024-01-16T03:09:35;1.60;97.40
58809;DHT22;44579;51.672;7.834;2024-01-16T03:12:03;1.60;97.30
58809;DHT22;44579;51.672;7.834;2024-01-16T03:14:29;1.60;97.30
58809;DHT22;44579;51.672;7.834;2024-01-16T03:17:01;1.60;97.30
58809;DHT22;44579;51.672;7.834;2024-01-16T03:19:28;1.60;97.30
58809;DHT22;44579;51.672;7.834;2024-01-16T03:21:54;1.50;97.30
58809;DHT22;44579;51.672;7.834;2024-01-16T03:24:21;1.60;97.30
58809;DHT22;44579;51.672;7.834;2024-01-16T03:26:48;1.60;97.30
58809;DHT22;44579;51.672;7.834;2024-01-16T03:29:15;1.60;97.30
58809;DHT22;44579;51.672;7.834;2024-01-16T03:31:42;1.60;97.30
58809;DHT22;44579;51.672;7.834;2024-01-16T03:34:09;1.60;97.70
58809;DHT22;44579;51.672;7.834;2024-01-16T03:36:37;1.60;97.30
58809;DHT22;44579;51.672;7.834;2024-01-16T03:39:04;1.60;97.30
58809;DHT22;44579;51.672;7.834;2024-01-16T03:41:32;1.60;97.30
58809;DHT22;44579;51.672;7.834;2024-01-16T03:43:59;1.60;97.30
58809;DHT22;44579;51.672;7.834;2024-01-16T03:46:25;1.60;97.30
58809;DHT22;44579;51.672;7.834;2024-01-16T03:48:52;1.60;97.30
58809;DHT22;44579;51.672;7.834;2024-01-16T03:51:19;1.60;97.30
58809;DHT22;44579;51.672;7.834;2024-01-16T03:53:46;1.60;97.40
58809;DHT22;44579;51.672;7.834;2024-01-16T03:56:13;1.70;97.40
58809;DHT22;44579;51.672;7.834;2024-01-16T03:58:40;1.70;97.40
58809;DHT22;44579;51.672;7.834;2024-01-16T04:01:08;1.60;97.40
58809;DHT22;44579;51.672;7.834;2024-01-16T04:03:35;1.60;97.40
58809;DHT22;44579;51.672;7.834;2024-01-16T04:06:03;1.60;97.40
58809;DHT22;44579;51.672;7.834;2024-01-16T04:08:30;1.60;97.40
58809;DHT22;44579;51.672;7.834;2024-01-16T04:10:57;1.70;97.40
58809;DHT22;44579;51.672;7.834;2024-01-16T04:13:24;1.60;97.40
58809;DHT22;44579;51.672;7.834;2024-01-16T04:15:50;1.70;97.40
58809;DHT22;44579;51.672;7.834;2024-01-16T04:18:17;1.70;97.40
58809;DHT22;44579;51.672;7.834;2024-01-16T04:20:44;1.70;97.40
58809;DHT22;44579;51.672;7.834;2024-01-16T04:23:11;1.70;97.40
58809;DHT22;44579;51.672;7.834;2024-01-16T04:25:38;1.70;97.40
58809;DHT22;44579;51.672;7.834;2024-01-16T04:28:05;1.70;97.40
58809;DHT22;44579;51.672;7.834;2024-01-16T04:30:32;1.70;97.30
58809;DHT22;44579;51.672;7.834;2024-01-16T04:32:59;1.70;97.30
58809;DHT22;44579;51.672;7.834;2024-01-16T04:35:26;1.70;97.30
58809;DHT22;44579;51.672;7.834;2024-01-16T04:37:53;1.70;97.30
58809;DHT22;44579;51.672;7.834;2024-01-16T04:40:20;1.70;97.40
58809;DHT22;44579;51.672;7.834;2024-01-16T04:42:46;1.70;97.30
58809;DHT22;44579;51.672;7.834;2024-01-16T04:45:13;1.70;97.30
58809;DHT22;44579;51.672;7.834;2024-01-16T04:47:40;1.70;97.30
58809;DHT22;44579;51.672;7.834;2024-01-16T04:50:07;1.70;97.30
58809;DHT22;44579;51.672;7.834;2024-01-16T04:52:34;1.70;97.30
58809;DHT22;44579;51.672;7.834;2024-01-16T04:55:01;1.80;97.30
58809;DHT22;44579;51.672;7.834;2024-01-16T04:57:28;1.70;97.30
58809;DHT22;44579;51.672;7.834;2024-01-16T04:59:55;1.80;97.30
58809;DHT22;44579;51.672;7.834;2024-01-16T05:02:22;1.80;97.30
58809;DHT22;44579;51.672;7.834;2024-01-16T05:04:49;1.80;97.30
58809;DHT22;44579;51.672;7.834;2024-01-16T05:07:18;1.80;97.30
58809;DHT22;44579;51.672;7.834;2024-01-16T05:09:47;1.80;97.30
58809;DHT22;44579;51.672;7.834;2024-01-16T05:12:13;1.80;97.30
58809;DHT22;44579;51.672;7.834;2024-01-16T05:14:40;1.80;97.30
58809;DHT22;44579;51.672;7.834;2024-01-16T05:17:07;1.80;97.70
58809;DHT22;44579;51.672;7.834;2024-01-16T05:19:34;1.80;97.30
58809;DHT22;44579;51.672;7.834;2024-01-16T05:22:01;1.80;97.30
58809;DHT22;44579;51.672;7.834;2024-01-16T05:24:29;1.80;97.30
58809;DHT22;44579;51.672;7.834;2024-01-16T05:26:56;1.80;97.30
58809;DHT22;44579;51.672;7.834;2024-01-16T05:29:23;1.80;97.30
58809;DHT22;44579;51.672;7.834;2024-01-16T05:31:50;1.80;97.40
58809;DHT22;44579;51.672;7.834;2024-01-16T05:34:17;1.80;97.30
58809;DHT22;44579;51.672;7.834;2024-01-16T05:36:44;1.80;97.30
58809;DHT22;44579;51.672;7.834;2024-01-16T05:39:10;1.80;97.30
58809;DHT22;44579;51.672;7.834;2024-01-16T05:41:37;1.80;97.30
58809;DHT22;44579;51.672;7.834;2024-01-16T05:44:04;1.80;97.30
58809;DHT22;44579;51.672;7.834;2024-01-16T05:46:31;1.80;97.40
58809;DHT22;44579;51.672;7.834;2024-01-16T05:48:58;1.80;97.40
58809;DHT22;44579;51.672;7.834;2024-01-16T05:51:27;1.80;97.40
58809;DHT22;44579;51.672;7.834;2024-01-16T05:53:54;1.80;97.40
58809;DHT22;44579;51.672;7.834;2024-01-16T05:56:21;1.80;97.40
58809;DHT22;44579;51.672;7.834;2024-01-16T05:58:48;1.80;97.40
58809;DHT22;44579;51.672;7.834;2024-01-16T06:01:15;1.80;97.40
58809;DHT22;44579;51.672;7.834;2024-01-16T06:03:42;1.80;97.30
58809;DHT22;44579;51.672;7.834;2024-01-16T06:06:14;1.80;97.40
58809;DHT22;44579;51.672;7.834;2024-01-16T06:08:41;1.80;97.30
58809;DHT22;44579;51.672;7.834;2024-01-16T06:11:08;1.80;97.30
58809;DHT22;44579;51.672;7.834;2024-01-16T06:13:39;1.80;97.30
58809;DHT22;44579;51.672;7.834;2024-01-16T06:16:06;1.80;97.40
58809;DHT22;44579;51.672;7.834;2024-01-16T06:18:34;1.80;97.40
58809;DHT22;44579;51.672;7.834;2024-01-16T06:21:02;1.80;97.30
58809;DHT22;44579;51.672;7.834;2024-01-16T06:23:29;1.80;97.30
58809;DHT22;44579;51.672;7.834;2024-01-16T06:25:56;1.80;97.30
58809;DHT22;44579;51.672;7.834;2024-01-16T06:28:23;1.80;97.20
58809;DHT22;44579;51.672;7.834;2024-01-16T06:30:50;1.80;97.20
58809;DHT22;44579;51.672;7.834;2024-01-16T06:33:17;1.80;97.20
58809;DHT22;44579;51.672;7.834;2024-01-16T06:35:44;1.80;97.20
58809;DHT22;44579;51.672;7.834;2024-01-16T06:38:11;1.80;97.30
58809;DHT22;44579;51.672;7.834;2024-01-16T06:40:37;1.80;97.30
58809;DHT22;44579;51.672;7.834;2024-01-16T06:43:04;1.80;97.30
58809;DHT22;44579;51.672;7.834;2024-01-16T06:45:32;1.80;97.30
58809;DHT22;44579;51.672;7.834;2024-01-16T06:47:58;1.80;97.30
58809;DHT22;44579;51.672;7.834;2024-01-16T06:50:25;1.80;97.30
58809;DHT22;44579;51.672;7.834;2024-01-16T06:52:52;1.80;97.20
58809;DHT22;44579;51.672;7.834;2024-01-16T06:55:19;1.80;97.30
58809;DHT22;44579;51.672;7.834;2024-01-16T06:57:45;1.80;97.20
58809;DHT22;44579;51.672;7.834;2024-01-16T07:00:13;1.90;97.30
58809;DHT22;44579;51.672;7.834;2024-01-16T07:02:41;1.90;97.30
58809;DHT22;44579;51.672;7.834;2024-01-16T07:05:11;1.90;97.30
58809;DHT22;44579;51.672;7.834;2024-01-16T07:07:38;1.90;97.30
58809;DHT22;44579;51.672;7.834;2024-01-16T07:10:04;1.80;97.30
58809;DHT22;44579;51.672;7.834;2024-01-16T07:12:34;1.80;97.30
58809;DHT22;44579;51.672;7.834;2024-01-16T07:15:01;1.80;97.30
58809;DHT22;44579;51.672;7.834;2024-01-16T07:17:28;1.80;97.30
58809;DHT22;44579;51.672;7.834;2024-01-16T07:19:54;1.90;97.40
58809;DHT22;44579;51.672;7.834;2024-01-16T07:22:21;1.90;97.40
58809;DHT22;44579;51.672;7.834;2024-01-16T07:24:48;1.90;97.40
58809;DHT22;44579;51.672;7.834;2024-01-16T07:27:15;1.80;97.40
58809;DHT22;44579;51.672;7.834;2024-01-16T07:29:42;1.80;97.40
58809;DHT22;44579;51.672;7.834;2024-01-16T07:32:09;1.80;97.40
58809;DHT22;44579;51.672;7.834;2024-01-16T07:34:37;1.80;97.40
58809;DHT22;44579;51.672;7.834;2024-01-16T07:37:04;1.80;97.40
58809;DHT22;44579;51.672;7.834;2024-01-16T07:39:31;1.80;97.40
58809;DHT22;44579;51.672;7.834;2024-01-16T07:41:58;1.80;97.40
58809;DHT22;44579;51.672;7.834;2024-01-16T07:44:24;1.80;97.40
58809;DHT22;44579;51.672;7.834;2024-01-16T07:46:51;1.80;97.40
58809;DHT22;44579;51.672;7.834;2024-01-16T07:49:18;1.80;97.50
58809;DHT22;44579;51.672;7.834;2024-01-16T07:51:45;1.80;97.50
58809;DHT22;44579;51.672;7.834;2024-01-16T07:54:12;1.80;97.50
58809;DHT22;44579;51.672;7.834;2024-01-16T07:56:40;1.80;97.50
58809;DHT22;44579;51.672;7.834;2024-01-16T07:59:07;1.80;97.50
58809;DHT22;44579;51.672;7.834;2024-01-16T08:01:34;1.80;97.50
58809;DHT22;44579;51.672;7.834;2024-01-16T08:04:00;1.80;97.50
58809;DHT22;44579;51.672;7.834;2024-01-16T08:06:27;1.90;97.50
58809;DHT22;44579;51.672;7.834;2024-01-16T08:08:54;1.90;97.50
58809;DHT22;44579;51.672;7.834;2024-01-16T08:11:21;1.90;97.40
58809;DHT22;44579;51.672;7.834;2024-01-16T08:13:48;2.00;97.40
58809;DHT22;44579;51.672;7.834;2024-01-16T08:16:15;2.00;97.40
58809;DHT22;44579;51.672;7.834;2024-01-16T08:18:42;2.00;97.40
58809;DHT22;44579;51.672;7.834;2024-01-16T08:21:09;2.00;97.40
58809;DHT22;44579;51.672;7.834;2024-01-16T08:23:36;2.00;97.40
58809;DHT22;44579;51.672;7.834;2024-01-16T08:26:03;2.00;97.40
58809;DHT22;44579;51.672;7.834;2024-01-16T08:28:31;2.00;97.80
58809;DHT22;44579;51.672;7.834;2024-01-16T08:30:58;2.00;97.40
58809;DHT22;44579;51.672;7.834;2024-01-16T08:33:25;2.00;97.40
58809;DHT22;44579;51.672;7.834;2024-01-16T08:36:03;2.00;97.40
58809;DHT22;44579;51.672;7.834;2024-01-16T08:38:30;2.10;97.50
58809;DHT22;44579;51.672;7.834;2024-01-16T08:40:57;2.10;97.50
58809;DHT22;44579;51.672;7.834;2024-01-16T08:43:24;2.10;97.50
58809;DHT22;44579;51.672;7.834;2024-01-16T08:45:51;2.10;97.50
58809;DHT22;44579;51.672;7.834;2024-01-16T08:48:17;2.10;97.50
58809;DHT22;44579;51.672;7.834;2024-01-16T08:50:45;2.10;97.50
58809;DHT22;44579;51.672;7.834;2024-01-16T08:53:12;2.10;97.50
58809;DHT22;44579;51.672;7.834;2024-01-16T08:55:39;2.10;97.50
58809;DHT22;44579;51.672;7.834;2024-01-16T08:58:05;2.10;97.60
58809;DHT22;44579;51.672;7.834;2024-01-16T09:00:32;2.10;97.60
58809;DHT22;44579;51.672;7.834;2024-01-16T09:03:00;2.10;97.60
58809;DHT22;44579;51.672;7.834;2024-01-16T09:05:30;2.10;97.60
58809;DHT22;44579;51.672;7.834;2024-01-16T09:07:57;2.10;97.60
58809;DHT22;44579;51.672;7.834;2024-01-16T09:10:24;2.10;97.60
58809;DHT22;44579;51.672;7.834;2024-01-16T09:12:51;2.00;97.60
58809;DHT22;44579;51.672;7.834;2024-01-16T09:15:18;2.00;97.60
58809;DHT22;44579;51.672;7.834;2024-01-16T09:17:45;2.10;97.70
58809;DHT22;44579;51.672;7.834;2024-01-16T09:20:11;2.10;97.70
58809;DHT22;44579;51.672;7.834;2024-01-16T09:22:38;2.10;97.70
58809;DHT22;44579;51.672;7.834;2024-01-16T09:25:05;2.10;97.70
58809;DHT22;44579;51.672;7.834;2024-01-16T09:27:32;2.10;97.60
58809;DHT22;44579;51.672;7.834;2024-01-16T09:29:59;2.10;97.70
58809;DHT22;44579;51.672;7.834;2024-01-16T09:32:26;2.10;97.70
58809;DHT22;44579;51.672;7.834;2024-01-16T09:34:53;2.00;97.70
58809;DHT22;44579;51.672;7.834;2024-01-16T09:37:20;2.00;97.70
58809;DHT22;44579;51.672;7.834;2024-01-16T09:39:47;2.00;97.70
58809;DHT22;44579;51.672;7.834;2024-01-16T09:42:14;2.00;97.70
58809;DHT22;44579;51.672;7.834;2024-01-16T09:44:41;2.00;97.80
58809;DHT22;44579;51.672;7.834;2024-01-16T09:47:09;1.90;97.70
58809;DHT22;44579;51.672;7.834;2024-01-16T09:49:38;1.90;97.70
58809;DHT22;44579;51.672;7.834;2024-01-16T09:52:06;1.90;97.70
58809;DHT22;44579;51.672;7.834;2024-01-16T09:54:32;1.90;97.70
58809;DHT22;44579;51.672;7.834;2024-01-16T09:57:00;1.90;97.70
58809;DHT22;44579;51.672;7.834;2024-01-16T09:59:29;1.90;97.70
58809;DHT22;44579;51.672;7.834;2024-01-16T10:01:57;1.90;97.70
58809;DHT22;44579;51.672;7.834;2024-01-16T10:04:27;1.90;97.70
58809;DHT22;44579;51.672;7.834;2024-01-16T10:06:54;1.90;97.70
58809;DHT22;44579;51.672;7.834;2024-01-16T10:09:22;1.90;97.70
58809;DHT22;44579;51.672;7.834;2024-01-16T10:11:50;1.90;97.70
58809;DHT22;44579;51.672;7.834;2024-01-16T10:14:17;1.90;97.70
58809;DHT22;44579;51.672;7.834;2024-01-16T10:16:57;2.00;97.80
58809;DHT22;44579;51.672;7.834;2024-01-16T10:19:29;2.00;97.80
58809;DHT22;44579;51.672;7.834;2024-01-16T10:22:12;2.00;97.70
58809;DHT22;44579;51.672;7.834;2024-01-16T10:24:40;2.10;97.70
58809;DHT22;44579;51.672;7.834;2024-01-16T10:27:07;2.10;97.70
58809;DHT22;44579;51.672;7.834;2024-01-16T10:29:34;2.10;97.70
58809;DHT22;44579;51.672;7.834;2024-01-16T10:32:26;2.20;97.80
58809;DHT22;44579;51.672;7.834;2024-01-16T10:35:03;2.20;97.80
58809;DHT22;44579;51.672;7.834;2024-01-16T10:37:40;2.20;97.70
58809;DHT22;44579;51.672;7.834;2024-01-16T10:40:07;2.20;97.70
58809;DHT22;44579;51.672;7.834;2024-01-16T10:42:34;2.30;97.80
58809;DHT22;44579;51.672;7.834;2024-01-16T10:45:01;2.30;97.80
58809;DHT22;44579;51.672;7.834;2024-01-16T10:47:29;2.30;97.70
58809;DHT22;44579;51.672;7.834;2024-01-16T10:49:56;2.30;98.10
58809;DHT22;44579;51.672;7.834;2024-01-16T10:52:24;2.30;97.70
58809;DHT22;44579;51.672;7.834;2024-01-16T10:54:53;2.30;97.70
58809;DHT22;44579;51.672;7.834;2024-01-16T10:57:24;2.30;97.80
58809;DHT22;44579;51.672;7.834;2024-01-16T11:00:09;2.30;97.70
58809;DHT22;44579;51.672;7.834;2024-01-16T11:02:43;2.40;97.80
58809;DHT22;44579;51.672;7.834;2024-01-16T11:05:12;2.30;97.70
58809;DHT22;44579;51.672;7.834;2024-01-16T11:07:39;2.30;97.70
58809;DHT22;44579;51.672;7.834;2024-01-16T11:10:07;2.30;97.70
58809;DHT22;44579;51.672;7.834;2024-01-16T11:12:35;2.30;97.80
58809;DHT22;44579;51.672;7.834;2024-01-16T11:15:03;2.40;97.80
58809;DHT22;44579;51.672;7.834;2024-01-16T11:17:34;2.40;97.80
58809;DHT22;44579;51.672;7.834;2024-01-16T11:20:03;2.40;97.80
58809;DHT22;44579;51.672;7.834;2024-01-16T11:22:56;2.50;97.80
58809;DHT22;44579;51.672;7.834;2024-01-16T11:25:32;2.60;97.90
58809;DHT22;44579;51.672;7.834;2024-01-16T11:28:09;2.50;97.80
58809;DHT22;44579;51.672;7.834;2024-01-16T11:30:37;2.50;97.90
58809;DHT22;44579;51.672;7.834;2024-01-16T11:33:04;2.60;97.90
58809;DHT22;44579;51.672;7.834;2024-01-16T11:35:32;2.60;97.90
58809;DHT22;44579;51.672;7.834;2024-01-16T11:38:15;2.60;98.00
58809;DHT22;44579;51.672;7.834;2024-01-16T11:40:48;2.60;98.10
58809;DHT22;44579;51.672;7.834;2024-01-16T11:46:01;2.60;98.10
58809;DHT22;44579;51.672;7.834;2024-01-16T11:48:28;2.60;98.20
58809;DHT22;44579;51.672;7.834;2024-01-16T11:50:55;2.60;98.20
58809;DHT22;44579;51.672;7.834;2024-01-16T11:53:43;2.60;98.10
58809;DHT22;44579;51.672;7.834;2024-01-16T11:59:26;2.70;98.20
58809;DHT22;44579;51.672;7.834;2024-01-16T12:01:59;2.70;98.20
58809;DHT22;44579;51.672;7.834;2024-01-16T12:04:31;2.70;98.20
58809;DHT22;44579;51.672;7.834;2024-01-16T12:06:58;2.80;98.20
58809;DHT22;44579;51.672;7.834;2024-01-16T12:09:26;2.80;98.20
58809;DHT22;44579;51.672;7.834;2024-01-16T12:11:57;2.90;98.30
58809;DHT22;44579;51.672;7.834;2024-01-16T12:14:25;2.90;98.30
58809;DHT22;44579;51.672;7.834;2024-01-16T12:16:51;2.90;98.20
58809;DHT22;44579;51.672;7.834;2024-01-16T12:19:18;2.90;98.20
58809;DHT22;44579;51.672;7.834;2024-01-16T12:21:45;2.90;98.20
58809;DHT22;44579;51.672;7.834;2024-01-16T12:24:12;3.00;98.30
58809;DHT22;44579;51.672;7.834;2024-01-16T12:26:44;3.00;98.30
58809;DHT22;44579;51.672;7.834;2024-01-16T12:29:11;3.10;98.30
58809;DHT22;44579;51.672;7.834;2024-01-16T12:31:38;3.10;98.30
58809;DHT22;44579;51.672;7.834;2024-01-16T12:34:05;3.20;98.30
58809;DHT22;44579;51.672;7.834;2024-01-16T12:36:35;3.30;98.30
58809;DHT22;44579;51.672;7.834;2024-01-16T12:39:02;3.40;98.30
58809;DHT22;44579;51.672;7.834;2024-01-16T12:41:31;3.40;98.30
58809;DHT22;44579;51.672;7.834;2024-01-16T12:44:08;3.50;98.30
58809;DHT22;44579;51.672;7.834;2024-01-16T12:46:45;3.50;98.40
58809;DHT22;44579;51.672;7.834;2024-01-16T12:49:21;3.60;98.50
58809;DHT22;44579;51.672;7.834;2024-01-16T12:51:49;3.60;98.50
58809;DHT22;44579;51.672;7.834;2024-01-16T12:54:17;3.60;98.50
58809;DHT22;44579;51.672;7.834;2024-01-16T12:56:45;3.60;98.50
58809;DHT22;44579;51.672;7.834;2024-01-16T12:59:13;3.60;98.60
58809;DHT22;44579;51.672;7.834;2024-01-16T13:01:41;3.60;98.60
58809;DHT22;44579;51.672;7.834;2024-01-16T13:04:09;3.60;98.60
58809;DHT22;44579;51.672;7.834;2024-01-16T13:06:36;3.60;98.70
58809;DHT22;44579;51.672;7.834;2024-01-16T13:09:05;3.60;98.70
58809;DHT22;44579;51.672;7.834;2024-01-16T13:14:13;3.70;98.70
58809;DHT22;44579;51.672;7.834;2024-01-16T13:16:39;3.70;98.70
58809;DHT22;44579;51.672;7.834;2024-01-16T13:19:06;3.60;98.60
58809;DHT22;44579;51.672;7.834;2024-01-16T13:21:37;3.60;98.70
58809;DHT22;44579;51.672;7.834;2024-01-16T13:24:04;3.70;98.80
58809;DHT22;44579;51.672;7.834;2024-01-16T13:26:31;3.80;98.90
58809;DHT22;44579;51.672;7.834;2024-01-16T13:28:59;3.80;98.90
58809;DHT22;44579;51.672;7.834;2024-01-16T13:31:26;3.80;99.00
58809;DHT22;44579;51.672;7.834;2024-01-16T13:33:54;3.90;99.00
58809;DHT22;44579;51.672;7.834;2024-01-16T13:36:23;3.90;99.00
58809;DHT22;44579;51.672;7.834;2024-01-16T13:39:13;4.00;99.00
58809;DHT22;44579;51.672;7.834;2024-01-16T13:41:42;3.90;98.90
58809;DHT22;44579;51.672;7.834;2024-01-16T13:44:09;3.90;98.80
58809;DHT22;44579;51.672;7.834;2024-01-16T13:46:35;3.80;98.80
58809;DHT22;44579;51.672;7.834;2024-01-16T13:49:22;3.80;98.80
58809;DHT22;44579;51.672;7.834;2024-01-16T13:51:50;3.70;98.80
58809;DHT22;44579;51.672;7.834;2024-01-16T13:54:18;3.60;98.70
58809;DHT22;44579;51.672;7.834;2024-01-16T13:56:45;3.60;98.70
58809;DHT22;44579;51.672;7.834;2024-01-16T13:59:32;3.50;98.60
58809;DHT22;44579;51.672;7.834;2024-01-16T14:01:58;3.40;98.60
58809;DHT22;44579;51.672;7.834;2024-01-16T14:04:25;3.40;98.60
58809;DHT22;44579;51.672;7.834;2024-01-16T14:06:52;3.30;98.50
58809;DHT22;44579;51.672;7.834;2024-01-16T14:09:38;3.30;98.40
58809;DHT22;44579;51.672;7.834;2024-01-16T14:12:06;3.30;98.40
58809;DHT22;44579;51.672;7.834;2024-01-16T14:14:35;3.20;98.40
58809;DHT22;44579;51.672;7.834;2024-01-16T14:17:02;3.20;98.20
58809;DHT22;44579;51.672;7.834;2024-01-16T14:19:29;3.20;98.20
58809;DHT22;44579;51.672;7.834;2024-01-16T14:21:58;3.10;98.10
58809;DHT22;44579;51.672;7.834;2024-01-16T14:24:25;3.00;98.00
58809;DHT22;44579;51.672;7.834;2024-01-16T14:26:52;2.90;97.90
58809;DHT22;44579;51.672;7.834;2024-01-16T14:29:21;2.90;97.80
58809;DHT22;44579;51.672;7.834;2024-01-16T14:31:49;2.80;97.80
58809;DHT22;44579;51.672;7.834;2024-01-16T14:34:16;2.70;97.80
58809;DHT22;44579;51.672;7.834;2024-01-16T14:36:45;2.60;97.70
58809;DHT22;44579;51.672;7.834;2024-01-16T14:39:12;2.60;97.70
58809;DHT22;44579;51.672;7.834;2024-01-16T14:41:44;2.50;97.70
58809;DHT22;44579;51.672;7.834;2024-01-16T14:44:12;2.40;97.70
58809;DHT22;44579;51.672;7.834;2024-01-16T14:46:40;2.40;97.70
58809;DHT22;44579;51.672;7.834;2024-01-16T14:49:06;2.40;97.80
58809;DHT22;44579;51.672;7.834;2024-01-16T14:51:34;2.40;97.70
58809;DHT22;44579;51.672;7.834;2024-01-16T14:54:02;2.40;97.70
58809;DHT22;44579;51.672;7.834;2024-01-16T14:56:29;2.30;97.50
58809;DHT22;44579;51.672;7.834;2024-01-16T14:58:57;2.30;97.40
58809;DHT22;44579;51.672;7.834;2024-01-16T15:01:26;2.30;97.30
58809;DHT22;44579;51.672;7.834;2024-01-16T15:03:53;2.20;97.20
58809;DHT22;44579;51.672;7.834;2024-01-16T15:06:21;2.20;97.10
58809;DHT22;44579;51.672;7.834;2024-01-16T15:08:49;2.10;97.00
58809;DHT22;44579;51.672;7.834;2024-01-16T15:11:16;2.10;97.00
58809;DHT22;44579;51.672;7.834;2024-01-16T15:13:44;2.00;97.00
58809;DHT22;44579;51.672;7.834;2024-01-16T15:16:11;2.00;96.90
58809;DHT22;44579;51.672;7.834;2024-01-16T15:18:38;1.90;96.90
58809;DHT22;44579;51.672;7.834;2024-01-16T15:21:05;1.90;96.90
58809;DHT22;44579;51.672;7.834;2024-01-16T15:23:34;1.90;96.90
58809;DHT22;44579;51.672;7.834;2024-01-16T15:26:01;1.90;97.00
58809;DHT22;44579;51.672;7.834;2024-01-16T15:28:30;1.90;97.10
58809;DHT22;44579;51.672;7.834;2024-01-16T15:30:56;1.90;97.10
58809;DHT22;44579;51.672;7.834;2024-01-16T15:33:24;1.90;97.00
58809;DHT22;44579;51.672;7.834;2024-01-16T15:35:51;1.90;96.90
58809;DHT22;44579;51.672;7.834;2024-01-16T15:38:17;1.90;96.90
58809;DHT22;44579;51.672;7.834;2024-01-16T15:40:44;1.90;96.80
58809;DHT22;44579;51.672;7.834;2024-01-16T15:43:11;1.90;96.80
58809;DHT22;44579;51.672;7.834;2024-01-16T15:45:38;1.80;96.70
58809;DHT22;44579;51.672;7.834;2024-01-16T15:48:05;1.80;96.70
58809;DHT22;44579;51.672;7.834;2024-01-16T15:50:32;1.70;96.60
58809;DHT22;44579;51.672;7.834;2024-01-16T15:53:01;1.70;96.70
58809;DHT22;44579;51.672;7.834;2024-01-16T15:55:27;1.70;96.70
58809;DHT22;44579;51.672;7.834;2024-01-16T15:57:54;1.60;96.70